首页
METAR-TAF:

METAR-TAF

机场 :

揭阳潮汕国际机场

汕头, 中华人民共和国

纬度: 23-24N, 经度: 116-41E, 海拔: 3米

当前天气观测

该预报发布于46分钟前的01:00 UTC
风速6节,风向东北,在东转东北之间变化
温度 14°C
湿度 67%
气压 1024 hPa
能见度10公里或以上
多云层高于1900英尺

METAR: ZGOW 260100Z 04003MPS 010V070 9999 BKN019 14/08 Q1024 NOSIG

时间: 09:46 (01:46 UTC)

预报

该预报发布于4小时和43分钟前的21:03 UTC
预报有效从26日的 00点(UTC)到 26日的 24点(UTC)
风速6节,风向
能見度: 8000
多云层高于4000英尺

TAF: ZGOW 252103Z 2600/2624 09003MPS 8000 BKN040 TX21/2606Z TN13/2622Z

超过4000个机场的气象观测和天气预报(METAR&TAF报告)。

可查询的气象台以黄色和红色小点在地图上表示。

将鼠标移到小点上方,可查看气象台名称。

然后点击查看天气观测和预报。

如需切换地图:点击带黑十字的绿色按钮放大地图;点击带横线的绿色按钮缩小地图;或者点击绿色箭头查看邻近地区的地图。


METAR-TAF: